createdAt,value
2022-11-12T00:04:22.915Z,10.10
2022-11-12T00:14:24.192Z,11.10
2022-11-12T00:24:25.413Z,9.35
2022-11-12T00:34:27.049Z,9.75
2022-11-12T00:44:29.736Z,9.82
2022-11-12T00:54:30.959Z,10.05
2022-11-12T01:04:32.212Z,11.32
2022-11-12T01:14:33.552Z,10.63
2022-11-12T01:24:34.767Z,13.07
2022-11-12T01:34:36.051Z,12.55
2022-11-12T01:44:38.440Z,12.48
2022-11-12T01:54:39.733Z,12.20
2022-11-12T02:04:40.992Z,12.40
2022-11-12T02:14:42.340Z,10.68
2022-11-12T02:24:43.579Z,13.18
2022-11-12T02:34:44.856Z,12.57
2022-11-12T02:44:46.242Z,12.13
2022-11-12T02:54:47.496Z,12.60
2022-11-12T03:04:49.704Z,10.82
2022-11-12T03:14:51.065Z,13.38
2022-11-12T03:24:52.281Z,13.27
2022-11-12T03:34:55.587Z,13.57
2022-11-12T03:44:57.028Z,12.07
2022-11-12T03:54:58.274Z,10.70
2022-11-12T04:05:18.237Z,10.55
2022-11-12T04:15:19.490Z,9.60
2022-11-12T04:25:39.427Z,9.85
2022-11-12T04:35:40.691Z,9.40
2022-11-12T04:45:42.087Z,10.65
2022-11-12T04:55:43.339Z,10.10
2022-11-12T05:05:44.630Z,9.00
2022-11-12T05:15:45.890Z,8.70
2022-11-12T05:25:47.154Z,7.85
2022-11-12T05:35:48.373Z,8.10
2022-11-12T05:45:49.664Z,8.95
2022-11-12T05:55:50.883Z,9.27
2022-11-12T06:05:52.099Z,10.32
2022-11-12T06:15:53.368Z,10.88
2022-11-12T06:25:54.601Z,10.48
2022-11-12T06:35:55.892Z,11.60
2022-11-12T06:45:57.136Z,12.32
2022-11-12T06:55:58.474Z,13.18
2022-11-12T07:05:59.747Z,12.32
2022-11-12T07:16:01.059Z,12.05
2022-11-12T07:26:02.502Z,14.32
2022-11-12T07:36:03.868Z,13.32
2022-11-12T07:46:10.317Z,14.55
2022-11-12T07:56:12.177Z,13.23
2022-11-12T08:06:13.412Z,13.25
2022-11-12T08:16:15.183Z,14.82
2022-11-12T08:26:16.533Z,12.27
2022-11-12T08:36:17.858Z,12.10
2022-11-12T08:46:19.099Z,12.07
2022-11-12T08:56:20.452Z,13.60
2022-11-12T09:06:21.703Z,10.55
2022-11-12T09:16:24.172Z,11.43
2022-11-12T09:26:25.410Z,10.15
2022-11-12T09:36:26.679Z,11.23
2022-11-12T09:46:28.689Z,12.05
2022-11-12T09:56:30.359Z,13.93
2022-11-12T10:06:31.724Z,13.52
2022-11-12T10:16:45.039Z,16.30
2022-11-12T10:26:46.319Z,17.52
2022-11-12T10:36:47.675Z,15.38
2022-11-12T10:46:48.954Z,18.52
2022-11-12T10:56:55.143Z,50.67
2022-11-12T11:06:56.804Z,22.20
2022-11-12T11:16:58.050Z,25.13
2022-11-12T11:26:59.373Z,22.95
2022-11-12T11:37:00.633Z,20.25
2022-11-12T11:47:01.880Z,20.40
2022-11-12T11:57:03.130Z,19.80
2022-11-12T12:07:04.450Z,23.23
2022-11-12T12:17:05.775Z,22.25
2022-11-12T12:27:07.181Z,20.60
2022-11-12T12:37:08.418Z,18.15
2022-11-12T12:47:09.641Z,17.80
2022-11-12T12:57:10.870Z,16.60
2022-11-12T13:07:12.141Z,15.93
2022-11-12T13:17:13.439Z,15.52
2022-11-12T13:27:14.721Z,16.80
2022-11-12T13:37:15.964Z,14.73
2022-11-12T13:47:17.209Z,18.00
2022-11-12T13:57:18.449Z,17.20
2022-11-12T14:07:19.754Z,18.05
2022-11-12T14:17:22.462Z,16.98
2022-11-12T14:27:24.072Z,17.15
2022-11-12T14:37:25.324Z,17.95
2022-11-12T14:47:26.613Z,17.27
2022-11-12T14:57:27.865Z,19.05
2022-11-12T15:07:29.231Z,17.65
2022-11-12T15:17:30.472Z,18.23
2022-11-12T15:27:31.745Z,20.50
2022-11-12T15:37:33.498Z,21.25
2022-11-12T15:47:34.755Z,23.35
2022-11-12T15:57:36.013Z,23.08
2022-11-12T16:07:37.272Z,22.17
2022-11-12T16:17:38.586Z,20.40
2022-11-12T16:27:40.060Z,20.27
2022-11-12T16:37:41.347Z,23.30
2022-11-12T16:47:42.617Z,20.23
2022-11-12T16:57:43.930Z,23.73
2022-11-12T17:07:45.585Z,26.75
2022-11-12T17:17:46.826Z,31.23
2022-11-12T17:27:48.112Z,33.83
2022-11-12T17:37:51.233Z,38.38
2022-11-12T17:47:52.617Z,39.00
2022-11-12T17:57:53.858Z,36.40
2022-11-12T18:07:55.114Z,39.10
2022-11-12T18:17:56.455Z,40.50
2022-11-12T18:27:57.877Z,39.50
2022-11-12T18:37:59.151Z,42.08
2022-11-12T18:48:00.441Z,40.15
2022-11-12T18:58:01.719Z,41.60
2022-11-12T19:08:03.041Z,50.13
2022-11-12T19:18:04.331Z,49.03
2022-11-12T19:28:05.603Z,44.00
2022-11-12T19:38:06.900Z,47.67
2022-11-12T19:48:08.180Z,43.53
2022-11-12T19:58:09.753Z,41.15
2022-11-12T20:08:11.397Z,44.45
2022-11-12T20:18:26.053Z,43.75
2022-11-12T20:38:29.701Z,36.50
2022-11-12T20:48:31.224Z,38.47
2022-11-12T20:58:32.846Z,35.80
2022-11-12T21:08:34.204Z,33.38
2022-11-12T21:18:35.808Z,33.78
2022-11-12T21:28:43.394Z,34.67
2022-11-12T21:38:44.962Z,32.58
2022-11-12T21:48:46.645Z,28.27
2022-11-12T21:58:50.056Z,26.67
2022-11-12T22:08:51.359Z,27.45
2022-11-12T22:18:54.921Z,29.23
2022-11-12T22:28:56.955Z,25.15
2022-11-12T22:38:58.276Z,22.98
2022-11-12T22:48:59.719Z,23.77
2022-11-12T22:59:03.480Z,23.65
2022-11-12T23:09:04.802Z,25.30
2022-11-12T23:19:06.473Z,23.15
2022-11-12T23:29:08.002Z,24.83
2022-11-12T23:39:09.430Z,25.90
2022-11-12T23:49:10.700Z,25.02
2022-11-12T23:59:11.955Z,25.05
